Time,TemperatureF,DewpointF,PressureIn,WindDirection,WindDirectionDegrees,WindSpeedMPH,WindSpeedGustMPH,Humidity,HourlyPrecipIn,Conditions,Clouds,dailyrainin,SoftwareType,DateUTC
2013-05-11 00:01:00,65.5,58.5,29.86,West,280,0.0,0.0,78,0.00,,SKC,0.00,VWS V14.01,2013-05-11 04:01:00,
2013-05-11 00:06:00,65.5,58.8,29.86,West,280,0.0,0.0,79,0.00,,SKC,0.00,VWS V14.01,2013-05-11 04:06:00,
2013-05-11 00:11:00,65.3,58.3,29.86,West,280,0.0,0.0,78,0.00,,SKC,0.00,VWS V14.01,2013-05-11 04:11:00,
2013-05-11 00:16:00,65.5,58.5,29.86,West,280,0.0,0.0,78,0.00,,SKC,0.00,VWS V14.01,2013-05-11 04:16:00,
2013-05-11 00:21:00,65.5,58.8,29.86,West,280,0.0,0.0,79,0.00,,SKC,0.00,VWS V14.01,2013-05-11 04:21:00,
2013-05-11 00:26:00,65.3,58.6,29.86,West,280,0.0,0.0,79,0.00,,SKC,0.00,VWS V14.01,2013-05-11 04:26:00,
2013-05-11 00:31:00,65.2,58.5,29.86,West,280,0.0,0.0,79,0.00,,SKC,0.00,VWS V14.01,2013-05-11 04:31:00,
2013-05-11 00:36:00,65.0,58.3,29.86,West,280,0.0,0.0,79,0.00,,SKC,0.00,VWS V14.01,2013-05-11 04:36:00,
2013-05-11 00:41:00,64.8,58.1,29.86,West,280,0.0,0.0,79,0.00,,SKC,0.00,VWS V14.01,2013-05-11 04:41:00,
2013-05-11 00:46:00,64.8,58.1,29.86,West,280,0.0,0.0,79,0.00,,SKC,0.00,VWS V14.01,2013-05-11 04:46:00,
2013-05-11 00:51:00,65.0,58.3,29.86,West,280,0.0,0.0,79,0.00,,SKC,0.00,VWS V14.01,2013-05-11 04:51:00,
2013-05-11 00:56:00,65.0,58.3,29.86,West,280,0.0,0.0,79,0.00,,SKC,0.00,VWS V14.01,2013-05-11 04:56:00,
2013-05-11 01:01:00,65.2,58.2,29.85,West,280,0.0,0.0,78,0.00,,SKC,0.00,VWS V14.01,2013-05-11 05:01:00,
2013-05-11 01:06:00,65.0,58.3,29.85,West,280,0.0,0.0,79,0.00,,SKC,0.00,VWS V14.01,2013-05-11 05:06:00,
2013-05-11 01:11:00,65.0,58.3,29.85,West,280,0.0,0.0,79,0.00,,SKC,0.00,VWS V14.01,2013-05-11 05:11:00,
2013-05-11 01:16:00,64.7,58.7,29.85,West,280,0.0,0.0,81,0.00,,SKC,0.00,VWS V14.01,2013-05-11 05:16:00,
2013-05-11 01:21:00,64.3,58.7,29.85,West,280,0.0,0.0,82,0.00,,SKC,0.00,VWS V14.01,2013-05-11 05:21:00,
2013-05-11 01:26:00,63.9,58.6,29.85,West,280,2.0,2.0,83,0.00,,SKC,0.00,VWS V14.01,2013-05-11 05:26:00,
2013-05-11 01:31:00,63.7,57.8,29.85,West,280,0.0,0.0,81,0.00,,SKC,0.00,VWS V14.01,2013-05-11 05:31:00,
2013-05-11 01:36:00,64.0,57.4,29.85,West,280,0.0,2.0,79,0.00,,SKC,0.00,VWS V14.01,2013-05-11 05:36:00,
2013-05-11 01:41:00,64.3,57.7,29.85,West,280,0.0,0.0,79,0.00,,SKC,0.00,VWS V14.01,2013-05-11 05:41:00,
2013-05-11 01:46:00,64.5,57.8,29.85,West,280,0.0,0.0,79,0.00,,SKC,0.00,VWS V14.01,2013-05-11 05:46:00,
2013-05-11 01:51:00,64.3,57.3,29.85,West,280,0.0,0.0,78,0.00,,SKC,0.00,VWS V14.01,2013-05-11 05:51:00,
2013-05-11 01:56:00,64.5,57.1,29.85,West,280,0.0,0.0,77,0.00,,SKC,0.00,VWS V14.01,2013-05-11 05:56:00,
2013-05-11 02:01:00,64.5,57.1,29.83,West,280,0.0,0.0,77,0.00,,SKC,0.00,VWS V14.01,2013-05-11 06:01:00,
2013-05-11 02:06:00,64.7,57.7,29.83,West,280,0.0,0.0,78,0.00,,SKC,0.00,VWS V14.01,2013-05-11 06:06:00,
2013-05-11 02:11:00,64.5,57.8,29.83,West,280,0.0,0.0,79,0.00,,SKC,0.00,VWS V14.01,2013-05-11 06:11:00,
2013-05-11 02:16:00,64.2,58.6,29.83,West,280,0.0,0.0,82,0.00,,SKC,0.00,VWS V14.01,2013-05-11 06:16:00,
2013-05-11 02:21:00,63.9,58.6,29.83,West,280,0.0,0.0,83,0.00,,SKC,0.00,VWS V14.01,2013-05-11 06:21:00,
2013-05-11 02:26:00,63.7,58.5,29.83,West,280,0.0,0.0,83,0.00,,SKC,0.00,VWS V14.01,2013-05-11 06:26:00,
2013-05-11 02:31:00,63.4,58.2,29.84,West,280,0.0,0.0,83,0.00,,SKC,0.00,VWS V14.01,2013-05-11 06:31:00,
2013-05-11 02:36:00,63.2,58.3,29.84,West,280,0.0,0.0,84,0.00,,SKC,0.00,VWS V14.01,2013-05-11 06:36:00,
2013-05-11 02:41:00,63.2,58.3,29.84,West,280,0.0,0.0,84,0.00,,SKC,0.00,VWS V14.01,2013-05-11 06:41:00,
2013-05-11 02:46:00,63.1,58.8,29.82,West,280,0.0,0.0,86,0.00,,SKC,0.00,VWS V14.01,2013-05-11 06:46:00,
2013-05-11 02:51:00,62.7,58.8,29.82,West,280,0.0,0.0,87,0.00,,SKC,0.00,VWS V14.01,2013-05-11 06:51:00,
2013-05-11 02:56:00,62.4,58.8,29.82,West,280,0.0,0.0,88,0.00,,SKC,0.00,VWS V14.01,2013-05-11 06:56:00,
2013-05-11 03:01:00,62.1,58.8,29.82,West,280,0.0,0.0,89,0.00,,SKC,0.00,VWS V14.01,2013-05-11 07:01:00,
2013-05-11 03:06:00,62.0,58.1,29.82,West,280,0.0,0.0,87,0.00,,SKC,0.00,VWS V14.01,2013-05-11 07:06:00,
2013-05-11 03:11:00,62.1,58.2,29.82,West,280,0.0,0.0,87,0.00,,SKC,0.00,VWS V14.01,2013-05-11 07:11:00,
2013-05-11 03:16:00,62.1,57.9,29.81,West,280,0.0,0.0,86,0.00,,SKC,0.00,VWS V14.01,2013-05-11 07:16:00,
2013-05-11 03:21:00,62.4,57.8,29.81,West,280,0.0,0.0,85,0.00,,SKC,0.00,VWS V14.01,2013-05-11 07:21:00,
2013-05-11 03:26:00,62.4,57.8,29.81,West,280,0.0,0.0,85,0.00,,SKC,0.00,VWS V14.01,2013-05-11 07:26:00,
2013-05-11 03:31:00,62.4,57.5,29.81,West,280,0.0,0.0,84,0.00,,SKC,0.00,VWS V14.01,2013-05-11 07:31:00,
2013-05-11 03:36:00,62.6,57.7,29.81,West,280,0.0,0.0,84,0.00,,SKC,0.00,VWS V14.01,2013-05-11 07:36:00,
2013-05-11 03:41:00,62.7,57.8,29.81,West,280,0.0,0.0,84,0.00,,SKC,0.00,VWS V14.01,2013-05-11 07:41:00,
2013-05-11 03:46:00,62.6,58.0,29.80,West,280,0.0,5.0,85,0.00,,SKC,0.00,VWS V14.01,2013-05-11 07:46:00,
2013-05-11 03:51:00,62.4,57.8,29.80,West,280,0.0,0.0,85,0.00,,SKC,0.00,VWS V14.01,2013-05-11 07:51:00,
2013-05-11 03:56:00,62.3,58.1,29.80,West,280,0.0,0.0,86,0.00,,SKC,0.00,VWS V14.01,2013-05-11 07:56:00,
2013-05-11 04:01:00,62.3,57.7,29.81,West,280,2.0,2.0,85,0.00,,SKC,0.00,VWS V14.01,2013-05-11 08:01:00,
2013-05-11 04:06:00,62.6,57.4,29.81,West,278,0.0,0.0,83,0.00,,SKC,0.00,VWS V14.01,2013-05-11 08:06:00,
2013-05-11 04:11:00,62.9,57.3,29.81,West,278,0.0,0.0,82,0.00,,SKC,0.00,VWS V14.01,2013-05-11 08:11:00,
2013-05-11 04:16:00,63.1,57.5,29.81,West,278,0.0,0.0,82,0.00,,SKC,0.00,VWS V14.01,2013-05-11 08:16:00,
2013-05-11 04:21:00,63.2,57.3,29.81,West,278,0.0,0.0,81,0.00,,SKC,0.00,VWS V14.01,2013-05-11 08:21:00,
2013-05-11 04:26:00,63.2,57.3,29.81,West,278,0.0,0.0,81,0.00,,SKC,0.00,VWS V14.01,2013-05-11 08:26:00,
2013-05-11 04:31:00,62.9,58.0,29.80,West,278,0.0,0.0,84,0.00,,SKC,0.00,VWS V14.01,2013-05-11 08:31:00,
2013-05-11 04:36:00,62.3,58.1,29.80,West,278,0.0,0.0,86,0.00,,SKC,0.00,VWS V14.01,2013-05-11 08:36:00,
2013-05-11 04:41:00,62.1,58.2,29.80,West,278,0.0,0.0,87,0.00,,SKC,0.00,VWS V14.01,2013-05-11 08:41:00,
2013-05-11 04:46:00,62.0,58.1,29.81,West,278,0.0,0.0,87,0.00,,SKC,0.00,VWS V14.01,2013-05-11 08:46:00,
2013-05-11 04:51:00,61.8,57.6,29.81,West,278,0.0,0.0,86,0.00,,SKC,0.00,VWS V14.01,2013-05-11 08:51:00,
2013-05-11 04:56:00,62.0,57.5,29.81,West,278,0.0,0.0,85,0.00,,SKC,0.00,VWS V14.01,2013-05-11 08:56:00,
2013-05-11 05:01:00,62.4,57.5,29.79,West,278,0.0,0.0,84,0.00,,SKC,0.00,VWS V14.01,2013-05-11 09:01:00,
2013-05-11 05:06:00,62.4,57.2,29.79,West,278,0.0,0.0,83,0.00,,SKC,0.00,VWS V14.01,2013-05-11 09:06:00,
2013-05-11 05:11:00,62.4,57.5,29.79,West,278,0.0,0.0,84,0.00,,SKC,0.00,VWS V14.01,2013-05-11 09:11:00,
2013-05-11 05:16:00,62.3,57.4,29.80,West,278,0.0,0.0,84,0.00,,SKC,0.00,VWS V14.01,2013-05-11 09:16:00,
2013-05-11 05:21:00,62.1,57.5,29.80,West,278,0.0,0.0,85,0.00,,SKC,0.00,VWS V14.01,2013-05-11 09:21:00,
2013-05-11 05:26:00,62.0,57.5,29.80,West,278,0.0,0.0,85,0.00,,SKC,0.00,VWS V14.01,2013-05-11 09:26:00,
2013-05-11 05:31:00,61.8,57.2,29.79,West,278,0.0,0.0,85,0.00,,SKC,0.00,VWS V14.01,2013-05-11 09:31:00,
2013-05-11 05:36:00,62.0,57.1,29.79,West,278,0.0,0.0,84,0.00,,SKC,0.00,VWS V14.01,2013-05-11 09:36:00,
2013-05-11 05:41:00,62.0,57.5,29.79,West,278,0.0,0.0,85,0.00,,SKC,0.00,VWS V14.01,2013-05-11 09:41:00,
2013-05-11 05:46:00,61.6,57.0,29.79,West,278,0.0,0.0,85,0.00,,SKC,0.00,VWS V14.01,2013-05-11 09:46:00,
2013-05-11 05:51:00,61.2,57.0,29.79,West,278,0.0,0.0,86,0.00,,SKC,0.00,VWS V14.01,2013-05-11 09:51:00,
2013-05-11 05:56:00,60.9,57.0,29.79,West,278,0.0,0.0,87,0.00,,SKC,0.00,VWS V14.01,2013-05-11 09:56:00,
2013-05-11 06:01:00,60.4,56.8,29.80,West,278,0.0,0.0,88,0.00,,SKC,0.00,VWS V14.01,2013-05-11 10:01:00,
2013-05-11 06:06:00,60.2,57.0,29.80,West,278,0.0,0.0,89,0.00,,SKC,0.00,VWS V14.01,2013-05-11 10:06:00,
2013-05-11 06:11:00,59.9,56.7,29.80,West,278,0.0,0.0,89,0.00,,SKC,0.00,VWS V14.01,2013-05-11 10:11:00,
2013-05-11 06:16:00,59.9,56.7,29.81,West,278,0.0,0.0,89,0.00,,SKC,0.00,VWS V14.01,2013-05-11 10:16:00,
2013-05-11 06:21:00,59.6,56.7,29.81,West,278,0.0,0.0,90,0.00,,SKC,0.00,VWS V14.01,2013-05-11 10:21:00,
2013-05-11 06:26:00,59.3,56.4,29.81,West,278,3.0,3.0,90,0.00,,SKC,0.00,VWS V14.01,2013-05-11 10:26:00,
2013-05-11 06:31:00,59.0,56.4,29.82,West,278,0.0,0.0,91,0.00,,SKC,0.00,VWS V14.01,2013-05-11 10:31:00,
2013-05-11 06:36:00,58.9,56.3,29.82,West,278,0.0,0.0,91,0.00,,SKC,0.00,VWS V14.01,2013-05-11 10:36:00,
2013-05-11 06:41:00,58.9,56.3,29.82,West,278,0.0,0.0,91,0.00,,SKC,0.00,VWS V14.01,2013-05-11 10:41:00,
2013-05-11 06:46:00,58.9,56.6,29.82,West,278,0.0,0.0,92,0.00,,SKC,0.00,VWS V14.01,2013-05-11 10:46:00,
2013-05-11 06:51:00,58.9,56.6,29.82,West,276,0.0,0.0,92,0.00,,SKC,0.00,VWS V14.01,2013-05-11 10:51:00,
2013-05-11 06:55:00,58.9,56.3,29.82,West,276,0.0,0.0,91,0.00,,SKC,0.00,VWS V14.01,2013-05-11 10:55:00,
2013-05-11 07:00:00,58.9,56.6,29.82,West,276,0.0,0.0,92,0.00,,SKC,0.00,VWS V14.01,2013-05-11 11:00:00,
2013-05-11 07:05:00,58.9,56.3,29.82,West,276,0.0,0.0,91,0.00,,SKC,0.00,VWS V14.01,2013-05-11 11:05:00,
2013-05-11 07:10:00,58.9,56.3,29.82,West,276,0.0,0.0,91,0.00,,SKC,0.00,VWS V14.01,2013-05-11 11:10:00,
2013-05-11 07:15:00,58.9,56.3,29.83,West,276,0.0,0.0,91,0.00,,SKC,0.00,VWS V14.01,2013-05-11 11:15:00,
2013-05-11 07:20:00,59.0,56.7,29.83,WSW,250,0.0,0.0,92,0.00,,SKC,0.00,VWS V14.01,2013-05-11 11:20:00,
2013-05-11 07:25:00,59.2,56.9,29.83,WSW,250,0.0,0.0,92,0.00,,SKC,0.00,VWS V14.01,2013-05-11 11:25:00,
2013-05-11 07:30:00,59.5,57.2,29.82,WSW,250,0.0,0.0,92,0.00,,SKC,0.00,VWS V14.01,2013-05-11 11:30:00,
2013-05-11 07:35:00,59.6,57.3,29.82,WSW,255,0.0,1.0,92,0.00,,SKC,0.00,VWS V14.01,2013-05-11 11:35:00,
2013-05-11 07:40:00,59.6,57.0,29.82,West,274,0.0,0.0,91,0.00,,SKC,0.00,VWS V14.01,2013-05-11 11:40:00,
2013-05-11 07:45:00,59.6,57.0,29.82,West,274,0.0,0.0,91,0.00,,SKC,0.00,VWS V14.01,2013-05-11 11:45:00,
2013-05-11 07:50:00,59.8,56.9,29.82,West,274,0.0,0.0,90,0.00,,SKC,0.00,VWS V14.01,2013-05-11 11:50:00,
2013-05-11 07:55:00,59.9,57.0,29.82,West,274,0.0,0.0,90,0.00,,SKC,0.00,VWS V14.01,2013-05-11 11:55:00,
2013-05-11 08:00:00,60.4,57.8,29.82,West,274,0.0,0.0,91,0.00,,SKC,0.00,VWS V14.01,2013-05-11 12:00:00,
2013-05-11 08:05:00,60.9,58.3,29.82,West,271,0.0,0.0,91,0.00,,SKC,0.00,VWS V14.01,2013-05-11 12:05:00,
2013-05-11 08:10:00,61.2,58.6,29.82,West,271,0.0,0.0,91,0.00,,SKC,0.00,VWS V14.01,2013-05-11 12:10:00,
2013-05-11 08:15:00,61.5,58.8,29.82,West,271,0.0,0.0,91,0.00,,SKC,0.00,VWS V14.01,2013-05-11 12:15:00,
2013-05-11 08:20:00,61.6,58.6,29.82,West,271,0.0,0.0,90,0.00,,SKC,0.00,VWS V14.01,2013-05-11 12:20:00,
2013-05-11 08:25:00,61.8,58.5,29.82,West,271,0.0,0.0,89,0.00,,SKC,0.00,VWS V14.01,2013-05-11 12:25:00,
2013-05-11 08:30:00,62.0,58.7,29.82,West,271,0.0,0.0,89,0.00,,SKC,0.00,VWS V14.01,2013-05-11 12:30:00,
2013-05-11 08:35:00,62.3,59.0,29.82,West,271,0.0,0.0,89,0.00,,SKC,0.00,VWS V14.01,2013-05-11 12:35:00,
2013-05-11 08:40:00,62.6,59.0,29.82,West,271,0.0,0.0,88,0.00,,SKC,0.00,VWS V14.01,2013-05-11 12:40:00,
2013-05-11 08:45:00,62.9,58.7,29.82,West,271,0.0,0.0,86,0.00,,SKC,0.00,VWS V14.01,2013-05-11 12:45:00,
2013-05-11 08:50:00,63.2,59.0,29.82,West,271,0.0,0.0,86,0.00,,SKC,0.00,VWS V14.01,2013-05-11 12:50:00,
2013-05-11 08:55:00,63.2,59.0,29.82,West,264,0.0,0.0,86,0.00,,SKC,0.00,VWS V14.01,2013-05-11 12:55:00,
2013-05-11 09:00:00,63.4,59.2,29.83,West,264,0.0,0.0,86,0.00,,SKC,0.00,VWS V14.01,2013-05-11 13:00:00,
2013-05-11 09:05:00,63.5,59.2,29.83,West,264,0.0,0.0,86,0.00,,SKC,0.00,VWS V14.01,2013-05-11 13:05:00,
2013-05-11 09:10:00,63.5,59.6,29.83,West,264,0.0,0.0,87,0.00,,SKC,0.00,VWS V14.01,2013-05-11 13:10:00,
2013-05-11 09:15:00,63.5,58.9,29.83,West,264,0.0,0.0,85,0.00,,SKC,0.00,VWS V14.01,2013-05-11 13:15:00,
2013-05-11 09:20:00,63.5,58.9,29.83,SW,221,0.0,0.0,85,0.00,,SKC,0.00,VWS V14.01,2013-05-11 13:20:00,
2013-05-11 09:25:00,63.7,58.8,29.83,SW,221,0.0,0.0,84,0.00,,SKC,0.00,VWS V14.01,2013-05-11 13:25:00,
2013-05-11 09:30:00,63.7,58.1,29.82,SW,221,0.0,0.0,82,0.00,,SKC,0.00,VWS V14.01,2013-05-11 13:30:00,
2013-05-11 09:35:00,64.0,58.7,29.82,SW,221,0.0,0.0,83,0.00,,SKC,0.00,VWS V14.01,2013-05-11 13:35:00,
2013-05-11 09:40:00,64.0,58.7,29.82,SW,221,0.0,1.0,83,0.00,,SKC,0.00,VWS V14.01,2013-05-11 13:40:00,
2013-05-11 09:45:00,64.2,58.6,29.83,SW,221,0.0,2.0,82,0.00,,SKC,0.00,VWS V14.01,2013-05-11 13:45:00,
2013-05-11 09:50:00,64.5,59.6,29.83,SW,221,0.0,0.0,84,0.00,,SKC,0.00,VWS V14.01,2013-05-11 13:50:00,
2013-05-11 09:55:00,64.7,59.1,29.83,SW,221,0.0,0.0,82,0.00,,SKC,0.00,VWS V14.01,2013-05-11 13:55:00,
2013-05-11 10:00:00,65.2,59.9,29.82,SW,221,0.0,0.0,83,0.00,,SKC,0.00,VWS V14.01,2013-05-11 14:00:00,
2013-05-11 10:05:00,65.3,59.3,29.82,SW,221,0.0,0.0,81,0.00,,SKC,0.00,VWS V14.01,2013-05-11 14:05:00,
2013-05-11 10:10:00,65.6,60.0,29.82,SW,221,0.0,0.0,82,0.00,,SKC,0.00,VWS V14.01,2013-05-11 14:10:00,
2013-05-11 10:15:00,65.6,60.6,29.83,SW,221,0.0,0.0,84,0.00,,SKC,0.00,VWS V14.01,2013-05-11 14:15:00,
2013-05-11 10:20:00,65.6,60.6,29.83,SW,221,0.0,1.0,84,0.00,,SKC,0.00,VWS V14.01,2013-05-11 14:20:00,
2013-05-11 10:25:00,65.6,60.0,29.83,SW,221,0.0,0.0,82,0.00,,SKC,0.00,VWS V14.01,2013-05-11 14:25:00,
2013-05-11 10:30:00,66.0,60.3,29.83,SW,221,0.0,0.0,82,0.00,,SKC,0.00,VWS V14.01,2013-05-11 14:30:00,
2013-05-11 10:35:00,65.8,59.5,29.83,SW,221,0.0,2.0,80,0.00,,SKC,0.00,VWS V14.01,2013-05-11 14:35:00,
2013-05-11 10:40:00,66.3,60.7,29.83,SW,221,0.0,0.0,82,0.00,,SKC,0.00,VWS V14.01,2013-05-11 14:40:00,
2013-05-11 10:45:00,66.1,60.5,29.83,SW,231,0.0,1.0,82,0.00,,SKC,0.00,VWS V14.01,2013-05-11 14:45:00,
2013-05-11 10:50:00,65.5,59.9,29.83,SW,231,0.0,1.0,82,0.00,,SKC,0.00,VWS V14.01,2013-05-11 14:50:00,
2013-05-11 10:55:00,65.3,60.3,29.83,SW,231,0.0,0.0,84,0.00,,SKC,0.00,VWS V14.01,2013-05-11 14:55:00,
2013-05-11 11:00:00,65.3,60.0,29.83,SW,231,0.0,0.0,83,0.00,,SKC,0.00,VWS V14.01,2013-05-11 15:00:00,
2013-05-11 11:05:00,65.3,60.3,29.83,SW,231,0.0,0.0,84,0.00,,SKC,0.00,VWS V14.01,2013-05-11 15:05:00,
2013-05-11 11:10:00,65.3,59.7,29.83,SW,231,0.0,0.0,82,0.00,,SKC,0.00,VWS V14.01,2013-05-11 15:10:00,
2013-05-11 11:15:00,65.5,60.2,29.83,SW,231,0.0,0.0,83,0.00,,SKC,0.00,VWS V14.01,2013-05-11 15:15:00,
2013-05-11 11:20:00,65.6,60.6,29.83,SW,231,0.0,0.0,84,0.00,,SKC,0.00,VWS V14.01,2013-05-11 15:20:00,
2013-05-11 11:25:00,66.0,60.7,29.83,SW,231,0.0,2.0,83,0.00,,SKC,0.00,VWS V14.01,2013-05-11 15:25:00,
2013-05-11 11:30:00,66.3,60.7,29.83,SW,231,0.0,0.0,82,0.00,,SKC,0.00,VWS V14.01,2013-05-11 15:30:00,
2013-05-11 11:35:00,66.1,59.4,29.83,SW,231,0.0,1.0,79,0.00,,SKC,0.00,VWS V14.01,2013-05-11 15:35:00,
2013-05-11 11:40:00,66.0,59.7,29.83,SW,231,0.0,0.0,80,0.00,,SKC,0.00,VWS V14.01,2013-05-11 15:40:00,
2013-05-11 11:45:00,66.3,59.6,29.83,SW,231,0.0,0.0,79,0.00,,SKC,0.00,VWS V14.01,2013-05-11 15:45:00,
2013-05-11 11:50:00,66.6,59.5,29.83,SW,231,0.0,0.0,78,0.00,,SKC,0.00,VWS V14.01,2013-05-11 15:50:00,
2013-05-11 11:55:00,67.1,60.0,29.83,SW,231,2.0,3.0,78,0.00,,SKC,0.00,VWS V14.01,2013-05-11 15:55:00,
2013-05-11 12:00:00,67.8,59.6,29.82,SW,229,0.0,3.0,75,0.00,,SKC,0.00,VWS V14.01,2013-05-11 16:00:00,
2013-05-11 12:05:00,68.3,59.7,29.82,SSW,200,1.0,3.0,74,0.00,,SKC,0.00,VWS V14.01,2013-05-11 16:05:00,
2013-05-11 12:10:00,68.3,59.3,29.82,South,186,1.0,4.0,73,0.00,,SKC,0.00,VWS V14.01,2013-05-11 16:10:00,
2013-05-11 12:15:00,68.4,59.8,29.81,ESE,103,2.0,5.0,74,0.00,,SKC,0.00,VWS V14.01,2013-05-11 16:15:00,
2013-05-11 12:20:00,68.4,59.0,29.81,ESE,110,4.0,5.0,72,0.00,,SKC,0.00,VWS V14.01,2013-05-11 16:20:00,
2013-05-11 12:25:00,68.3,59.3,29.81,ESE,110,0.0,5.0,73,0.00,,SKC,0.00,VWS V14.01,2013-05-11 16:25:00,
2013-05-11 12:30:00,68.4,59.8,29.82,ESE,110,0.0,4.0,74,0.00,,SKC,0.00,VWS V14.01,2013-05-11 16:30:00,
2013-05-11 12:35:00,68.4,58.6,29.82,ESE,110,0.0,0.0,71,0.00,,SKC,0.00,VWS V14.01,2013-05-11 16:35:00,
2013-05-11 12:40:00,68.3,58.2,29.82,ESE,110,0.0,0.0,70,0.00,,SKC,0.00,VWS V14.01,2013-05-11 16:40:00,
2013-05-11 12:45:00,68.3,58.5,29.81,ESE,110,0.0,3.0,71,0.00,,SKC,0.00,VWS V14.01,2013-05-11 16:45:00,
2013-05-11 12:50:00,68.3,58.9,29.81,ESE,110,0.0,0.0,72,0.00,,SKC,0.00,VWS V14.01,2013-05-11 16:50:00,
2013-05-11 12:55:00,68.1,58.7,29.81,ESE,110,0.0,0.0,72,0.00,,SKC,0.00,VWS V14.01,2013-05-11 16:55:00,
2013-05-11 13:00:00,68.1,58.3,29.81,ESE,110,0.0,2.0,71,0.00,,SKC,0.00,VWS V14.01,2013-05-11 17:00:00,
2013-05-11 13:05:00,68.3,59.3,29.81,ESE,110,0.0,0.0,73,0.00,,SKC,0.00,VWS V14.01,2013-05-11 17:05:00,
2013-05-11 13:10:00,68.1,58.3,29.81,ESE,110,0.0,0.0,71,0.00,,SKC,0.00,VWS V14.01,2013-05-11 17:10:00,
2013-05-11 13:15:00,68.1,58.7,29.81,ESE,110,0.0,0.0,72,0.00,,SKC,0.00,VWS V14.01,2013-05-11 17:15:00,
2013-05-11 13:20:00,68.6,58.4,29.81,ESE,110,0.0,0.0,70,0.00,,SKC,0.00,VWS V14.01,2013-05-11 17:20:00,
2013-05-11 13:25:00,68.9,58.7,29.81,ESE,110,0.0,3.0,70,0.00,,SKC,0.00,VWS V14.01,2013-05-11 17:25:00,
2013-05-11 13:30:00,69.1,58.5,29.80,East,87,0.0,3.0,69,0.00,,SKC,0.00,VWS V14.01,2013-05-11 17:30:00,
2013-05-11 13:35:00,69.3,58.7,29.80,East,87,0.0,3.0,69,0.00,,SKC,0.00,VWS V14.01,2013-05-11 17:35:00,
2013-05-11 13:40:00,69.4,58.4,29.80,East,87,0.0,0.0,68,0.00,,SKC,0.00,VWS V14.01,2013-05-11 17:40:00,
2013-05-11 13:45:00,69.8,60.0,29.78,East,87,0.0,2.0,71,0.00,,SKC,0.00,VWS V14.01,2013-05-11 17:45:00,
2013-05-11 13:50:00,70.1,58.7,29.78,East,87,0.0,3.0,67,0.00,,SKC,0.00,VWS V14.01,2013-05-11 17:50:00,
2013-05-11 13:55:00,69.9,58.5,29.78,East,87,0.0,4.0,67,0.00,,SKC,0.00,VWS V14.01,2013-05-11 17:55:00,
2013-05-11 14:00:00,69.8,58.8,29.78,East,87,1.0,5.0,68,0.00,,SKC,0.00,VWS V14.01,2013-05-11 18:00:00,
2013-05-11 14:05:00,69.6,58.6,29.78,East,87,0.0,5.0,68,0.00,,SKC,0.00,VWS V14.01,2013-05-11 18:05:00,
2013-05-11 14:10:00,69.3,58.3,29.78,East,86,0.0,5.0,68,0.00,,SKC,0.00,VWS V14.01,2013-05-11 18:10:00,
2013-05-11 14:15:00,68.9,58.3,29.79,North,1,0.0,6.0,69,0.00,,SKC,0.00,VWS V14.01,2013-05-11 18:15:00,
2013-05-11 14:20:00,68.4,59.0,29.79,NW,304,0.0,5.0,72,0.00,,SKC,0.00,VWS V14.01,2013-05-11 18:20:00,
2013-05-11 14:25:00,67.9,59.7,29.79,NW,305,3.0,4.0,75,0.00,,SKC,0.00,VWS V14.01,2013-05-11 18:25:00,
2013-05-11 14:30:00,67.4,58.8,29.79,NW,305,0.0,2.0,74,0.00,,SKC,0.00,VWS V14.01,2013-05-11 18:30:00,
2013-05-11 14:35:00,66.9,59.1,29.79,NW,305,0.0,0.0,76,0.00,,SKC,0.00,VWS V14.01,2013-05-11 18:35:00,
2013-05-11 14:40:00,66.6,59.9,29.79,NW,305,0.0,6.0,79,0.01,,SKC,0.01,VWS V14.01,2013-05-11 18:40:00,
2013-05-11 14:45:00,65.6,60.3,29.79,NW,318,3.0,7.0,83,0.08,,SKC,0.08,VWS V14.01,2013-05-11 18:45:00,
2013-05-11 14:50:00,64.3,60.0,29.79,NNW,329,3.0,8.0,86,0.13,,SKC,0.13,VWS V14.01,2013-05-11 18:50:00,
2013-05-11 14:55:00,63.7,60.4,29.79,West,266,0.0,6.0,89,0.15,,SKC,0.15,VWS V14.01,2013-05-11 18:55:00,
2013-05-11 15:00:00,63.4,60.7,29.80,West,266,0.0,0.0,91,0.16,,SKC,0.16,VWS V14.01,2013-05-11 19:00:00,
2013-05-11 15:05:00,63.5,61.4,29.80,West,266,0.0,0.0,93,0.16,,SKC,0.16,VWS V14.01,2013-05-11 19:05:00,
2013-05-11 15:10:00,64.2,62.4,29.80,West,266,0.0,0.0,94,0.16,,SKC,0.16,VWS V14.01,2013-05-11 19:10:00,
2013-05-11 15:15:00,64.3,62.2,29.78,West,266,0.0,0.0,93,0.16,,SKC,0.16,VWS V14.01,2013-05-11 19:15:00,
2013-05-11 15:20:00,64.5,62.1,29.78,West,266,0.0,0.0,92,0.16,,SKC,0.16,VWS V14.01,2013-05-11 19:20:00,
2013-05-11 15:25:00,65.0,62.6,29.78,West,278,0.0,0.0,92,0.16,,SKC,0.16,VWS V14.01,2013-05-11 19:25:00,
2013-05-11 15:30:00,64.7,62.3,29.78,West,278,0.0,0.0,92,0.16,,SKC,0.16,VWS V14.01,2013-05-11 19:30:00,
2013-05-11 15:35:00,64.7,62.3,29.78,West,278,0.0,0.0,92,0.16,,SKC,0.16,VWS V14.01,2013-05-11 19:35:00,
2013-05-11 15:40:00,64.7,62.3,29.78,West,278,0.0,0.0,92,0.16,,SKC,0.16,VWS V14.01,2013-05-11 19:40:00,
2013-05-11 15:45:00,64.8,62.4,29.78,West,278,0.0,0.0,92,0.15,,SKC,0.16,VWS V14.01,2013-05-11 19:45:00,
2013-05-11 15:50:00,65.0,62.9,29.78,West,278,0.0,0.0,93,0.08,,SKC,0.16,VWS V14.01,2013-05-11 19:50:00,
2013-05-11 15:55:00,64.7,62.3,29.78,WNW,300,5.0,9.0,92,0.03,,SKC,0.16,VWS V14.01,2013-05-11 19:55:00,
2013-05-11 16:00:00,64.8,61.5,29.78,WNW,295,0.0,6.0,89,0.01,,SKC,0.16,VWS V14.01,2013-05-11 20:00:00,
2013-05-11 16:05:00,65.2,62.8,29.78,West,278,0.0,0.0,92,0.00,,SKC,0.16,VWS V14.01,2013-05-11 20:05:00,
2013-05-11 16:10:00,65.0,62.6,29.78,West,278,0.0,0.0,92,0.00,,SKC,0.16,VWS V14.01,2013-05-11 20:10:00,
2013-05-11 16:15:00,65.0,62.9,29.78,West,278,0.0,0.0,93,0.00,,SKC,0.16,VWS V14.01,2013-05-11 20:15:00,
2013-05-11 16:20:00,64.8,62.7,29.78,West,278,0.0,0.0,93,0.00,,SKC,0.16,VWS V14.01,2013-05-11 20:20:00,
2013-05-11 16:25:00,65.2,63.4,29.78,WSW,253,1.0,3.0,94,0.00,,SKC,0.16,VWS V14.01,2013-05-11 20:25:00,
2013-05-11 16:30:00,65.2,63.4,29.77,SW,229,0.0,3.0,94,0.00,,SKC,0.16,VWS V14.01,2013-05-11 20:30:00,
2013-05-11 16:35:00,65.8,64.3,29.77,SW,229,0.0,0.0,95,0.00,,SKC,0.16,VWS V14.01,2013-05-11 20:35:00,
2013-05-11 16:40:00,66.0,64.5,29.77,SW,217,0.0,4.0,95,0.00,,SKC,0.16,VWS V14.01,2013-05-11 20:40:00,
2013-05-11 16:45:00,66.1,64.6,29.77,SW,217,0.0,0.0,95,0.00,,SKC,0.16,VWS V14.01,2013-05-11 20:45:00,
2013-05-11 16:50:00,66.3,64.5,29.77,SW,217,0.0,0.0,94,0.00,,SKC,0.16,VWS V14.01,2013-05-11 20:50:00,
2013-05-11 16:55:00,66.6,64.2,29.77,SSW,211,2.0,4.0,92,0.00,,SKC,0.16,VWS V14.01,2013-05-11 20:55:00,
2013-05-11 17:00:00,66.6,63.6,29.76,SSW,200,0.0,3.0,90,0.00,,SKC,0.16,VWS V14.01,2013-05-11 21:00:00,
2013-05-11 17:05:00,66.8,63.8,29.76,SSW,200,0.0,0.0,90,0.00,,SKC,0.16,VWS V14.01,2013-05-11 21:05:00,
2013-05-11 17:10:00,66.6,62.9,29.76,SSW,200,0.0,1.0,88,0.00,,SKC,0.16,VWS V14.01,2013-05-11 21:10:00,
2013-05-11 17:15:00,66.8,63.1,29.76,SSW,200,0.0,0.0,88,0.00,,SKC,0.16,VWS V14.01,2013-05-11 21:15:00,
2013-05-11 17:20:00,66.9,63.6,29.76,SSW,200,0.0,0.0,89,0.00,,SKC,0.16,VWS V14.01,2013-05-11 21:20:00,
2013-05-11 17:25:00,66.4,62.7,29.76,SSW,198,0.0,2.0,88,0.00,,SKC,0.16,VWS V14.01,2013-05-11 21:25:00,
2013-05-11 17:30:00,66.4,63.4,29.76,SSW,198,0.0,1.0,90,0.00,,SKC,0.16,VWS V14.01,2013-05-11 21:30:00,
2013-05-11 17:35:00,66.3,63.3,29.76,SSW,198,0.0,0.0,90,0.00,,SKC,0.16,VWS V14.01,2013-05-11 21:35:00,
2013-05-11 17:40:00,65.6,62.0,29.76,South,169,0.0,5.0,88,0.00,,SKC,0.16,VWS V14.01,2013-05-11 21:40:00,
2013-05-11 17:45:00,65.8,62.5,29.76,South,169,0.0,1.0,89,0.00,,SKC,0.16,VWS V14.01,2013-05-11 21:45:00,
2013-05-11 17:50:00,66.0,63.0,29.76,South,169,0.0,0.0,90,0.00,,SKC,0.16,VWS V14.01,2013-05-11 21:50:00,
2013-05-11 17:55:00,66.0,63.3,29.76,South,169,0.0,0.0,91,0.01,,SKC,0.17,VWS V14.01,2013-05-11 21:55:00,
2013-05-11 18:00:00,65.8,62.8,29.76,South,169,0.0,0.0,90,0.01,,SKC,0.17,VWS V14.01,2013-05-11 22:00:00,
2013-05-11 18:05:00,65.6,63.2,29.76,South,169,0.0,0.0,92,0.01,,SKC,0.17,VWS V14.01,2013-05-11 22:05:00,
2013-05-11 18:10:00,65.5,63.1,29.76,South,169,0.0,1.0,92,0.01,,SKC,0.17,VWS V14.01,2013-05-11 22:10:00,
2013-05-11 18:15:00,65.5,63.4,29.75,South,169,0.0,0.0,93,0.01,,SKC,0.17,VWS V14.01,2013-05-11 22:15:00,
2013-05-11 18:20:00,65.8,64.0,29.75,South,169,0.0,1.0,94,0.01,,SKC,0.17,VWS V14.01,2013-05-11 22:20:00,
2013-05-11 18:25:00,66.0,64.2,29.75,South,169,0.0,1.0,94,0.01,,SKC,0.17,VWS V14.01,2013-05-11 22:25:00,
2013-05-11 18:30:00,66.3,64.5,29.75,South,169,0.0,0.0,94,0.01,,SKC,0.17,VWS V14.01,2013-05-11 22:30:00,
2013-05-11 18:35:00,66.1,63.4,29.75,South,169,0.0,1.0,91,0.01,,SKC,0.17,VWS V14.01,2013-05-11 22:35:00,
2013-05-11 18:40:00,66.3,63.0,29.75,South,169,0.0,0.0,89,0.01,,SKC,0.17,VWS V14.01,2013-05-11 22:40:00,
2013-05-11 18:45:00,66.3,63.3,29.75,South,169,0.0,0.0,90,0.01,,SKC,0.17,VWS V14.01,2013-05-11 22:45:00,
2013-05-11 18:50:00,66.4,63.4,29.75,SSW,193,0.0,2.0,90,0.01,,SKC,0.17,VWS V14.01,2013-05-11 22:50:00,
2013-05-11 18:55:00,66.1,63.1,29.75,SSW,193,0.0,0.0,90,0.01,,SKC,0.17,VWS V14.01,2013-05-11 22:55:00,
2013-05-11 19:00:00,66.1,63.4,29.75,SSW,193,0.0,0.0,91,0.00,,SKC,0.17,VWS V14.01,2013-05-11 23:00:00,
2013-05-11 19:05:00,66.0,63.0,29.75,WSW,253,0.0,1.0,90,0.00,,SKC,0.17,VWS V14.01,2013-05-11 23:05:00,
2013-05-11 19:10:00,65.6,62.6,29.75,WSW,253,0.0,0.0,90,0.00,,SKC,0.17,VWS V14.01,2013-05-11 23:10:00,
2013-05-11 19:15:00,65.3,62.9,29.75,WSW,253,0.0,0.0,92,0.00,,SKC,0.17,VWS V14.01,2013-05-11 23:15:00,
2013-05-11 19:20:00,64.8,62.1,29.75,WSW,253,0.0,3.0,91,0.00,,SKC,0.17,VWS V14.01,2013-05-11 23:20:00,
2013-05-11 19:25:00,64.7,62.0,29.75,WSW,253,0.0,0.0,91,0.00,,SKC,0.17,VWS V14.01,2013-05-11 23:25:00,
2013-05-11 19:30:00,64.5,61.5,29.76,WSW,252,0.0,1.0,90,0.00,,SKC,0.17,VWS V14.01,2013-05-11 23:30:00,
2013-05-11 19:35:00,64.5,61.8,29.76,WSW,252,0.0,0.0,91,0.00,,SKC,0.17,VWS V14.01,2013-05-11 23:35:00,
2013-05-11 19:40:00,64.5,62.1,29.76,WSW,252,0.0,0.0,92,0.00,,SKC,0.17,VWS V14.01,2013-05-11 23:40:00,
2013-05-11 19:45:00,64.2,61.8,29.76,SW,229,0.0,0.0,92,0.00,,SKC,0.17,VWS V14.01,2013-05-11 23:45:00,
2013-05-11 19:50:00,63.9,61.5,29.76,SW,223,0.0,0.0,92,0.00,,SKC,0.17,VWS V14.01,2013-05-11 23:50:00,
2013-05-11 19:55:00,63.4,61.0,29.76,SW,223,0.0,3.0,92,0.00,,SKC,0.17,VWS V14.01,2013-05-11 23:55:00,
2013-05-11 20:00:00,62.9,60.5,29.77,SW,223,0.0,1.0,92,0.00,,SKC,0.17,VWS V14.01,2013-05-12 00:00:00,
2013-05-11 20:05:00,62.4,60.0,29.77,SW,223,0.0,0.0,92,0.00,,SKC,0.17,VWS V14.01,2013-05-12 00:05:00,
2013-05-11 20:10:00,62.1,59.8,29.77,SW,224,0.0,3.0,92,0.00,,SKC,0.17,VWS V14.01,2013-05-12 00:10:00,
2013-05-11 20:15:00,62.0,59.7,29.76,SSW,207,0.0,0.0,92,0.00,,SKC,0.17,VWS V14.01,2013-05-12 00:15:00,
2013-05-11 20:20:00,61.3,59.0,29.76,WSW,238,0.0,5.0,92,0.00,,SKC,0.17,VWS V14.01,2013-05-12 00:20:00,
2013-05-11 20:25:00,61.0,58.7,29.76,WSW,244,3.0,5.0,92,0.00,,SKC,0.17,VWS V14.01,2013-05-12 00:25:00,
2013-05-11 20:30:00,60.7,58.4,29.78,WSW,244,0.0,4.0,92,0.00,,SKC,0.17,VWS V14.01,2013-05-12 00:30:00,
2013-05-11 20:35:00,60.7,58.7,29.78,WSW,244,0.0,0.0,93,0.00,,SKC,0.17,VWS V14.01,2013-05-12 00:35:00,
2013-05-11 20:40:00,60.5,58.5,29.78,WSW,245,0.0,4.0,93,0.00,,SKC,0.17,VWS V14.01,2013-05-12 00:40:00,
2013-05-11 20:45:00,60.4,58.4,29.78,WSW,246,3.0,4.0,93,0.00,,SKC,0.17,VWS V14.01,2013-05-12 00:45:00,
2013-05-11 20:50:00,60.4,58.7,29.78,WSW,246,0.0,2.0,94,0.00,,SKC,0.17,VWS V14.01,2013-05-12 00:50:00,
2013-05-11 20:55:00,60.1,58.4,29.78,WSW,246,0.0,3.0,94,0.00,,SKC,0.17,VWS V14.01,2013-05-12 00:55:00,
2013-05-11 21:00:00,60.2,58.2,29.78,WSW,246,0.0,1.0,93,0.00,,SKC,0.17,VWS V14.01,2013-05-12 01:00:00,
2013-05-11 21:05:00,60.1,58.1,29.78,WSW,250,0.0,3.0,93,0.00,,SKC,0.17,VWS V14.01,2013-05-12 01:05:00,
2013-05-11 21:10:00,60.2,58.2,29.78,WSW,250,0.0,0.0,93,0.00,,SKC,0.17,VWS V14.01,2013-05-12 01:10:00,
2013-05-11 21:15:00,60.2,58.2,29.77,WSW,250,0.0,0.0,93,0.00,,SKC,0.17,VWS V14.01,2013-05-12 01:15:00,
2013-05-11 21:20:00,60.4,58.4,29.77,WSW,250,0.0,0.0,93,0.00,,SKC,0.17,VWS V14.01,2013-05-12 01:20:00,
2013-05-11 21:25:00,60.4,58.7,29.77,WSW,250,0.0,0.0,94,0.00,,SKC,0.17,VWS V14.01,2013-05-12 01:25:00,
2013-05-11 21:30:00,60.4,58.7,29.78,WSW,250,0.0,0.0,94,0.00,,SKC,0.17,VWS V14.01,2013-05-12 01:30:00,
2013-05-11 21:35:00,60.4,58.7,29.78,WSW,250,0.0,1.0,94,0.00,,SKC,0.17,VWS V14.01,2013-05-12 01:35:00,
2013-05-11 21:40:00,60.4,58.7,29.78,WSW,250,0.0,0.0,94,0.00,,SKC,0.17,VWS V14.01,2013-05-12 01:40:00,
2013-05-11 21:45:00,60.5,59.1,29.78,WSW,250,0.0,0.0,95,0.00,,SKC,0.17,VWS V14.01,2013-05-12 01:45:00,
2013-05-11 21:50:00,60.4,59.0,29.78,WSW,250,0.0,0.0,95,0.00,,SKC,0.17,VWS V14.01,2013-05-12 01:50:00,
2013-05-11 21:55:00,60.5,59.1,29.78,WSW,250,0.0,0.0,95,0.00,,SKC,0.17,VWS V14.01,2013-05-12 01:55:00,
2013-05-11 22:00:00,60.4,59.0,29.78,WSW,250,0.0,0.0,95,0.00,,SKC,0.17,VWS V14.01,2013-05-12 02:00:00,
2013-05-11 22:05:00,59.9,58.5,29.78,WSW,250,2.0,3.0,95,0.00,,SKC,0.17,VWS V14.01,2013-05-12 02:05:00,
2013-05-11 22:10:00,59.6,57.9,29.78,WSW,250,0.0,3.0,94,0.00,,SKC,0.17,VWS V14.01,2013-05-12 02:10:00,
2013-05-11 22:15:00,59.6,57.3,29.78,WSW,251,5.0,5.0,92,0.00,,SKC,0.17,VWS V14.01,2013-05-12 02:15:00,
2013-05-11 22:20:00,60.1,56.8,29.78,WSW,252,0.0,4.0,89,0.00,,SKC,0.17,VWS V14.01,2013-05-12 02:20:00,
2013-05-11 22:25:00,60.1,56.5,29.78,West,259,0.0,5.0,88,0.00,,SKC,0.17,VWS V14.01,2013-05-12 02:25:00,
2013-05-11 22:30:00,60.4,56.8,29.79,West,259,0.0,1.0,88,0.00,,SKC,0.17,VWS V14.01,2013-05-12 02:30:00,
2013-05-11 22:35:00,60.5,55.0,29.79,West,281,2.0,12.0,82,0.00,,SKC,0.17,VWS V14.01,2013-05-12 02:35:00,
2013-05-11 22:40:00,61.5,55.3,29.79,WNW,283,1.0,9.0,80,0.00,,SKC,0.17,VWS V14.01,2013-05-12 02:40:00,
2013-05-11 22:45:00,62.0,55.4,29.79,West,281,9.0,10.0,79,0.00,,SKC,0.17,VWS V14.01,2013-05-12 02:45:00,
2013-05-11 22:50:00,62.4,54.4,29.79,West,272,7.0,19.0,75,0.00,,SKC,0.17,VWS V14.01,2013-05-12 02:50:00,
2013-05-11 22:55:00,62.7,54.3,29.79,WNW,295,5.0,16.0,74,0.01,,SKC,0.18,VWS V14.01,2013-05-12 02:55:00,
2013-05-11 23:00:00,62.4,53.6,29.80,WNW,297,3.0,15.0,73,0.01,,SKC,0.18,VWS V14.01,2013-05-12 03:00:00,
2013-05-11 23:05:00,62.3,53.9,29.80,WNW,287,6.0,22.0,74,0.01,,SKC,0.18,VWS V14.01,2013-05-12 03:05:00,
2013-05-11 23:10:00,62.3,53.2,29.80,NNW,328,6.0,13.0,72,0.01,,SKC,0.18,VWS V14.01,2013-05-12 03:10:00,
2013-05-11 23:15:00,62.4,53.3,29.79,WNW,292,3.0,11.0,72,0.01,,SKC,0.18,VWS V14.01,2013-05-12 03:15:00,
2013-05-11 23:20:00,62.3,53.2,29.79,WNW,292,0.0,6.0,72,0.01,,SKC,0.18,VWS V14.01,2013-05-12 03:20:00,
2013-05-11 23:25:00,62.1,53.3,29.79,WNW,292,0.0,4.0,73,0.01,,SKC,0.18,VWS V14.01,2013-05-12 03:25:00,
2013-05-11 23:30:00,62.0,53.3,29.80,WNW,292,1.0,4.0,73,0.01,,SKC,0.18,VWS V14.01,2013-05-12 03:30:00,
2013-05-11 23:35:00,62.0,53.3,29.80,WNW,292,0.0,2.0,73,0.01,,SKC,0.18,VWS V14.01,2013-05-12 03:35:00,
2013-05-11 23:40:00,62.0,53.3,29.80,WNW,292,0.0,5.0,73,0.01,,SKC,0.18,VWS V14.01,2013-05-12 03:40:00,
2013-05-11 23:45:00,61.2,54.3,29.80,WNW,292,1.0,3.0,78,0.01,,SKC,0.18,VWS V14.01,2013-05-12 03:45:00,
2013-05-11 23:50:00,60.9,52.6,29.80,WNW,292,1.0,6.0,74,0.01,,SKC,0.18,VWS V14.01,2013-05-12 03:50:00,
2013-05-11 23:55:00,60.9,51.8,29.80,WNW,290,2.0,7.0,72,0.01,,SKC,0.18,VWS V14.01,2013-05-12 03:55:00,